VCP982 EGNX-EGPK
Flight info
| Callsign | VCP982 |
|---|---|
| Flight time | 0h 40m |
| Altitude | 24000 |
| Route | TNT N57 POL N601 RIBEL/N0458F280 DCT ASLIB |
| Aircraft | MD11/H-SDE1E2E3FGHIJ2J3J4J5M1RWXY/LB1D1 |
Departure
| Time | 2026-04-30 17:41 |
|---|---|
| Airport | East Midlands Airport (EGNX) |
Arrival
| Time | 2026-04-30 18:22 |
|---|---|
| Airport | Glasgow Prestwick Airport (EGPK) |
| Time | Latitude | Longitude | Altitude | Speed | Heading |
|---|---|---|---|---|---|
| 2026-04-30 17:39 | 52.82933 | -1.34911 | 316 ft | 0 kts | 332° |
| 2026-04-30 17:41 | 52.83185 | -1.29315 | 1163 ft | 190 kts | 88° |
| 2026-04-30 17:42 | 52.83256 | -1.24952 | 2521 ft | 220 kts | 78° |
| 2026-04-30 17:42 | 52.87420 | -1.21553 | 4745 ft | 259 kts | 345° |
| 2026-04-30 17:43 | 52.89115 | -1.23386 | 5546 ft | 261 kts | 307° |
| 2026-04-30 17:44 | 52.90799 | -1.31601 | 7865 ft | 262 kts | 291° |
| 2026-04-30 17:44 | 52.93742 | -1.39488 | 8555 ft | 280 kts | 303° |
| 2026-04-30 17:46 | 52.98763 | -1.51124 | 9823 ft | 314 kts | 303° |
| 2026-04-30 17:47 | 53.03825 | -1.63237 | 13175 ft | 332 kts | 306° |
| 2026-04-30 17:48 | 53.12476 | -1.71170 | 14504 ft | 408 kts | 343° |
| 2026-04-30 17:48 | 53.20903 | -1.76251 | 15971 ft | 442 kts | 339° |
| 2026-04-30 17:49 | 53.32600 | -1.83725 | 18662 ft | 457 kts | 339° |
| 2026-04-30 17:50 | 53.44689 | -1.91448 | 20972 ft | 475 kts | 339° |
| 2026-04-30 17:51 | 53.54037 | -1.97412 | 22712 ft | 485 kts | 339° |
| 2026-04-30 17:52 | 53.63469 | -2.03399 | 23969 ft | 485 kts | 339° |
| 2026-04-30 17:53 | 53.79755 | -2.14094 | 23990 ft | 523 kts | 333° |
| 2026-04-30 17:54 | 53.92772 | -2.25995 | 24072 ft | 534 kts | 332° |
| 2026-04-30 17:55 | 54.05901 | -2.37653 | 24202 ft | 534 kts | 332° |
| 2026-04-30 17:56 | 54.19054 | -2.49279 | 24192 ft | 535 kts | 332° |
| 2026-04-30 17:57 | 54.28962 | -2.58036 | 24196 ft | 535 kts | 332° |
| 2026-04-30 17:58 | 54.38566 | -2.66514 | 24192 ft | 501 kts | 331° |
| 2026-04-30 17:59 | 54.50560 | -2.77105 | 24204 ft | 481 kts | 332° |
| 2026-04-30 18:00 | 54.62414 | -2.87878 | 24199 ft | 482 kts | 330° |
| 2026-04-30 18:00 | 54.71308 | -2.95980 | 24203 ft | 481 kts | 330° |
| 2026-04-30 18:01 | 54.77178 | -3.01316 | 24203 ft | 481 kts | 330° |
| 2026-04-30 18:02 | 54.86018 | -3.09505 | 24160 ft | 472 kts | 328° |
| 2026-04-30 18:02 | 54.94266 | -3.17714 | 23081 ft | 453 kts | 328° |
| 2026-04-30 18:03 | 55.01829 | -3.26614 | 20494 ft | 424 kts | 305° |
| 2026-04-30 18:04 | 55.05035 | -3.40374 | 18560 ft | 409 kts | 282° |
| 2026-04-30 18:05 | 55.08426 | -3.58975 | 15941 ft | 395 kts | 284° |
| 2026-04-30 18:06 | 55.11840 | -3.76811 | 13792 ft | 384 kts | 284° |
| 2026-04-30 18:07 | 55.15166 | -3.94055 | 11625 ft | 357 kts | 284° |
| 2026-04-30 18:08 | 55.17390 | -4.05487 | 11071 ft | 312 kts | 284° |
| 2026-04-30 18:09 | 55.20148 | -4.19670 | 10018 ft | 307 kts | 285° |
| 2026-04-30 18:10 | 55.22850 | -4.33434 | 8437 ft | 299 kts | 285° |
| 2026-04-30 18:11 | 55.25379 | -4.46216 | 7782 ft | 254 kts | 284° |
| 2026-04-30 18:11 | 55.26981 | -4.54972 | 7554 ft | 249 kts | 284° |
| 2026-04-30 18:12 | 55.28598 | -4.63702 | 7405 ft | 250 kts | 284° |
| 2026-04-30 18:13 | 55.29673 | -4.69473 | 7262 ft | 249 kts | 284° |
| 2026-04-30 18:13 | 55.31348 | -4.76999 | 7116 ft | 253 kts | 309° |
| 2026-04-30 18:14 | 55.35085 | -4.79408 | 6322 ft | 258 kts | 6° |
| 2026-04-30 18:15 | 55.40546 | -4.79227 | 5067 ft | 265 kts | 359° |
| 2026-04-30 18:15 | 55.45975 | -4.79832 | 3795 ft | 250 kts | 359° |
| 2026-04-30 18:16 | 55.49295 | -4.80231 | 3286 ft | 230 kts | 360° |
| 2026-04-30 18:16 | 55.52290 | -4.80594 | 2968 ft | 205 kts | 0° |
| 2026-04-30 18:17 | 55.53685 | -4.80757 | 2832 ft | 198 kts | 1° |
| 2026-04-30 18:17 | 55.55054 | -4.80921 | 2676 ft | 195 kts | 1° |
| 2026-04-30 18:17 | 55.57705 | -4.81173 | 2252 ft | 188 kts | 16° |
| 2026-04-30 18:18 | 55.58751 | -4.80188 | 2185 ft | 160 kts | 65° |
| 2026-04-30 18:18 | 55.58936 | -4.78439 | 2178 ft | 144 kts | 116° |
| 2026-04-30 18:18 | 55.58261 | -4.77238 | 2188 ft | 141 kts | 149° |
| 2026-04-30 18:18 | 55.57400 | -4.76287 | 2006 ft | 149 kts | 138° |
| 2026-04-30 18:19 | 55.56672 | -4.75015 | 1816 ft | 144 kts | 129° |
| 2026-04-30 18:19 | 55.56049 | -4.73641 | 1654 ft | 143 kts | 126° |
| 2026-04-30 18:19 | 55.55470 | -4.72212 | 1477 ft | 145 kts | 124° |
| 2026-04-30 18:19 | 55.54911 | -4.70742 | 1286 ft | 147 kts | 123° |
| 2026-04-30 18:20 | 55.54346 | -4.69200 | 1096 ft | 148 kts | 122° |
| 2026-04-30 18:20 | 55.53791 | -4.67651 | 883 ft | 151 kts | 122° |
| 2026-04-30 18:20 | 55.53224 | -4.66096 | 703 ft | 152 kts | 122° |
| 2026-04-30 18:20 | 55.52657 | -4.64495 | 501 ft | 155 kts | 120° |
| 2026-04-30 18:21 | 55.52109 | -4.62840 | 294 ft | 157 kts | 121° |
| 2026-04-30 18:21 | 55.51530 | -4.61169 | 85 ft | 161 kts | 121° |
| 2026-04-30 18:21 | 55.50966 | -4.59536 | 51 ft | 137 kts | 120° |
| 2026-04-30 18:21 | 55.50659 | -4.58647 | 59 ft | 62 kts | 120° |
| 2026-04-30 18:22 | 55.50460 | -4.58075 | 64 ft | 37 kts | 122° |
| 2026-04-30 18:22 | 55.50303 | -4.57944 | 65 ft | 13 kts | 208° |
| 2026-04-30 18:22 | 55.50255 | -4.57995 | 64 ft | 7 kts | 201° |
| 2026-04-30 18:23 | 55.50189 | -4.58039 | 64 ft | 12 kts | 200° |
| 2026-04-30 18:23 | 55.50129 | -4.58090 | 63 ft | 6 kts | 236° |
| 2026-04-30 18:23 | 55.50126 | -4.58139 | 62 ft | 0 kts | 307° |
| 2026-04-30 18:23 | 55.50131 | -4.58168 | 62 ft | 4 kts | 268° |